Time;durP1;ratioP1;P1;durP2;ratioP2;P2;SDS_P1;SDS_P2;PMS_P1;PMS_P2;Temp;Humidity;BMP_temperature;BMP_pressure;BME280_temperature;BME280_humidity;BME280_pressure;Samples;Min_cycle;Max_cycle;Signal;HPM_P1;HPM_P2
2022/03/03 00:01:00;;;;;;;2.38;2.28;;;2.00;99.90;;;;;;5084473;28;20704;-62
2022/03/03 00:03:27;;;;;;;2.58;2.47;;;2.00;99.90;;;;;;5084743;28;20195;-63
2022/03/03 00:06:04;;;;;;;2.30;2.20;;;2.10;99.90;;;;;;5087958;28;20649;-62
2022/03/03 00:08:34;;;;;;;2.30;2.20;;;2.10;99.90;;;;;;5084411;28;20248;-62
2022/03/03 00:11:04;;;;;;;2.28;2.17;;;2.10;99.90;;;;;;5085914;28;20223;-62
2022/03/03 00:13:34;;;;;;;2.20;2.10;;;2.10;99.90;;;;;;5084975;28;20206;-62
2022/03/03 00:16:19;;;;;;;2.10;2.00;;;2.10;99.90;;;;;;5088073;28;20203;-62
2022/03/03 00:18:47;;;;;;;2.22;2.13;;;2.10;99.90;;;;;;5082879;28;20231;-63
2022/03/03 00:21:16;;;;;;;2.20;2.10;;;2.10;99.90;;;;;;5086604;28;20199;-62
2022/03/03 00:23:47;;;;;;;2.30;2.20;;;2.10;99.90;;;;;;5083248;28;20238;-63
2022/03/03 00:26:18;;;;;;;2.00;1.90;;;2.10;99.90;;;;;;5081813;28;20201;-62
2022/03/03 00:28:54;;;;;;;2.15;2.05;;;2.20;99.90;;;;;;5086077;28;20196;-62
2022/03/03 00:31:23;;;;;;;2.20;2.10;;;2.20;99.90;;;;;;5089660;28;20267;-63
2022/03/03 00:33:56;;;;;;;2.42;2.33;;;2.30;99.90;;;;;;5087105;28;20207;-63
2022/03/03 00:36:27;;;;;;;2.30;2.20;;;2.20;99.90;;;;;;5085451;28;20230;-63
2022/03/03 00:38:57;;;;;;;2.33;2.23;;;2.20;99.90;;;;;;5086654;28;20215;-63
2022/03/03 00:41:25;;;;;;;2.15;2.05;;;2.20;99.90;;;;;;5084845;28;20286;-62
2022/03/03 00:43:52;;;;;;;2.20;2.10;;;2.20;99.90;;;;;;5086181;28;20276;-62
2022/03/03 00:46:20;;;;;;;1.97;1.87;;;2.20;99.90;;;;;;5085810;28;20217;-63
2022/03/03 00:48:47;;;;;;;2.22;2.13;;;2.20;99.90;;;;;;5085654;28;20658;-64
2022/03/03 00:51:17;;;;;;;2.20;2.10;;;2.20;99.90;;;;;;5086478;28;20198;-62
2022/03/03 00:53:44;;;;;;;2.00;1.90;;;2.20;99.90;;;;;;5083528;28;20282;-65
2022/03/03 00:56:13;;;;;;;2.30;2.20;;;2.20;99.90;;;;;;5083377;28;20209;-63
2022/03/03 00:58:42;;;;;;;2.30;2.20;;;2.10;99.90;;;;;;5082880;28;20309;-63
2022/03/03 01:01:14;;;;;;;2.22;2.13;;;2.10;99.90;;;;;;5088935;28;20826;-63
2022/03/03 01:03:41;;;;;;;2.42;2.22;;;2.10;99.90;;;;;;5088314;28;20211;-63
2022/03/03 01:06:11;;;;;;;2.33;2.22;;;2.00;99.90;;;;;;5076269;28;20652;-63
2022/03/03 01:08:40;;;;;;;2.43;2.33;;;1.90;99.90;;;;;;5082925;28;20282;-63
2022/03/03 01:11:12;;;;;;;2.28;2.17;;;1.90;99.90;;;;;;5089238;28;20587;-64
2022/03/03 01:13:39;;;;;;;2.33;2.23;;;1.80;99.90;;;;;;5088410;28;20221;-62
2022/03/03 01:16:07;;;;;;;2.30;2.20;;;1.80;99.90;;;;;;5087109;28;20195;-62
2022/03/03 01:18:34;;;;;;;2.50;2.40;;;1.70;99.90;;;;;;5091029;28;20257;-62
2022/03/03 01:21:01;;;;;;;2.20;2.10;;;1.70;99.90;;;;;;5088493;28;20250;-62
2022/03/03 01:23:32;;;;;;;2.37;2.27;;;1.60;99.90;;;;;;5089409;28;20649;-62
2022/03/03 01:26:04;;;;;;;2.33;2.23;;;1.60;99.90;;;;;;5088289;28;20238;-62
2022/03/03 01:28:33;;;;;;;2.23;2.13;;;1.50;99.90;;;;;;5077840;28;20202;-62
2022/03/03 01:31:00;;;;;;;2.20;2.10;;;1.50;99.90;;;;;;5079393;28;20853;-63
2022/03/03 01:33:30;;;;;;;2.05;1.95;;;1.50;99.90;;;;;;5087950;28;20241;-62
2022/03/03 01:36:07;;;;;;;2.20;2.10;;;1.50;99.90;;;;;;5092369;28;20218;-64
2022/03/03 01:38:40;;;;;;;1.90;1.80;;;1.50;99.90;;;;;;5081196;28;20226;-64
2022/03/03 01:41:08;;;;;;;2.27;2.17;;;1.50;99.90;;;;;;5073284;28;20277;-63
2022/03/03 01:43:38;;;;;;;2.20;2.10;;;1.50;99.90;;;;;;5081141;28;20318;-63
2022/03/03 01:46:07;;;;;;;2.30;2.20;;;1.50;99.90;;;;;;5079223;28;20286;-62
2022/03/03 01:48:34;;;;;;;2.20;2.10;;;1.40;99.90;;;;;;5088202;28;20207;-63
2022/03/03 01:51:11;;;;;;;2.42;2.30;;;1.40;99.90;;;;;;5085458;28;20661;-63
2022/03/03 01:53:39;;;;;;;2.42;2.33;;;1.40;99.90;;;;;;5081759;28;20734;-63
2022/03/03 01:56:19;;;;;;;2.35;2.20;;;1.30;99.90;;;;;;5079256;28;20576;-63
2022/03/03 01:58:51;;;;;;;2.30;2.20;;;1.30;99.90;;;;;;5080244;28;20218;-63
2022/03/03 02:01:18;;;;;;;2.22;2.13;;;1.30;99.90;;;;;;5082807;28;20232;-64
2022/03/03 02:03:48;;;;;;;2.20;2.10;;;1.20;99.90;;;;;;5077236;28;20225;-63
2022/03/03 02:06:15;;;;;;;2.00;1.90;;;1.20;99.90;;;;;;5082142;28;20248;-63
2022/03/03 02:08:44;;;;;;;2.10;2.00;;;1.20;99.90;;;;;;5082111;28;20282;-63
2022/03/03 02:11:12;;;;;;;2.10;2.00;;;1.20;99.90;;;;;;5081574;28;20223;-63
2022/03/03 02:13:41;;;;;;;2.28;2.10;;;1.20;99.90;;;;;;5085032;28;20653;-62
2022/03/03 02:16:14;;;;;;;2.00;1.90;;;1.20;99.90;;;;;;5083896;28;20204;-62
2022/03/03 02:18:45;;;;;;;2.20;2.10;;;1.20;99.90;;;;;;5088119;28;20258;-63
2022/03/03 02:21:21;;;;;;;2.10;2.00;;;1.20;99.90;;;;;;5071922;28;20305;-63
2022/03/03 02:23:51;;;;;;;2.10;2.00;;;1.30;99.90;;;;;;5090177;28;20653;-62
2022/03/03 02:26:21;;;;;;;2.10;2.00;;;1.40;99.90;;;;;;5089456;28;20202;-63
2022/03/03 02:28:48;;;;;;;1.90;1.80;;;1.40;99.90;;;;;;5097883;28;20191;-63
2022/03/03 02:31:16;;;;;;;1.95;1.85;;;1.40;99.90;;;;;;5105677;22;20244;-65
2022/03/03 02:33:43;;;;;;;1.83;1.73;;;1.50;99.90;;;;;;5032691;28;20200;-65
2022/03/03 02:36:22;;;;;;;2.00;1.90;;;1.50;99.90;;;;;;5035241;28;20634;-66
2022/03/03 02:38:51;;;;;;;2.10;2.00;;;1.50;99.90;;;;;;5045903;28;20317;-63
2022/03/03 02:41:18;;;;;;;2.25;2.15;;;1.50;99.90;;;;;;5038080;28;20259;-65
2022/03/03 02:43:45;;;;;;;2.00;1.90;;;1.50;99.90;;;;;;5035934;28;20768;-66
2022/03/03 02:46:13;;;;;;;2.40;2.30;;;1.50;99.90;;;;;;5036910;28;20205;-63
2022/03/03 02:48:40;;;;;;;2.22;2.10;;;1.40;99.90;;;;;;5034737;28;20567;-62
2022/03/03 02:51:08;;;;;;;2.40;2.30;;;1.30;99.90;;;;;;5026617;28;20197;-65
2022/03/03 02:53:36;;;;;;;2.05;1.95;;;1.20;99.90;;;;;;5034520;28;20296;-65
2022/03/03 02:56:04;;;;;;;2.45;2.35;;;1.30;99.90;;;;;;5035067;28;20307;-65
2022/03/03 02:58:32;;;;;;;2.00;1.90;;;1.20;99.90;;;;;;5034509;28;20311;-64
2022/03/03 03:01:00;;;;;;;2.03;1.92;;;1.20;99.90;;;;;;5043558;28;20265;-63
2022/03/03 03:03:27;;;;;;;2.33;2.22;;;1.00;99.90;;;;;;5044265;28;20240;-65
2022/03/03 03:05:54;;;;;;;2.33;2.22;;;1.00;99.90;;;;;;5035172;28;20259;-64
2022/03/03 03:08:21;;;;;;;2.50;2.40;;;1.10;99.90;;;;;;5034952;28;20284;-65
2022/03/03 03:10:49;;;;;;;2.30;2.20;;;1.10;99.90;;;;;;5034706;28;20250;-65
2022/03/03 03:13:16;;;;;;;1.95;1.85;;;1.10;99.90;;;;;;5034566;28;20256;-64
2022/03/03 03:15:44;;;;;;;2.40;2.30;;;1.10;99.90;;;;;;5034733;28;20295;-65
2022/03/03 03:18:12;;;;;;;2.30;2.20;;;1.00;99.90;;;;;;5035203;28;20829;-62
2022/03/03 03:20:40;;;;;;;2.40;2.30;;;1.10;99.90;;;;;;5035062;28;20204;-66
2022/03/03 03:23:08;;;;;;;2.25;2.15;;;1.00;99.90;;;;;;5034134;28;20256;-64
2022/03/03 03:25:37;;;;;;;2.15;2.05;;;0.90;99.90;;;;;;5034412;28;20283;-64
2022/03/03 03:28:06;;;;;;;2.00;1.90;;;0.90;99.90;;;;;;5034633;28;20205;-64
2022/03/03 03:30:33;;;;;;;2.22;2.13;;;0.90;99.90;;;;;;5040056;28;20231;-66
2022/03/03 03:33:00;;;;;;;2.47;2.28;;;0.90;99.90;;;;;;5052163;28;20274;-65
2022/03/03 03:35:27;;;;;;;2.20;2.10;;;0.80;99.90;;;;;;5034382;28;20205;-64
2022/03/03 03:37:54;;;;;;;2.17;2.08;;;0.90;99.90;;;;;;5034176;28;20236;-66
2022/03/03 03:40:22;;;;;;;2.08;1.98;;;0.80;99.90;;;;;;5033775;28;20295;-64
2022/03/03 03:42:49;;;;;;;2.05;1.92;;;0.80;99.90;;;;;;5033511;28;20275;-65
2022/03/03 03:45:17;;;;;;;2.15;2.05;;;0.80;99.90;;;;;;5033991;28;20212;-63
2022/03/03 03:47:44;;;;;;;2.55;2.35;;;0.80;99.90;;;;;;5033891;28;20209;-64
2022/03/03 03:50:13;;;;;;;2.40;2.30;;;0.80;99.90;;;;;;5034241;28;20722;-64
2022/03/03 03:52:41;;;;;;;2.05;1.95;;;0.80;99.90;;;;;;5035131;28;20231;-65
2022/03/03 03:55:11;;;;;;;2.47;2.37;;;0.80;99.90;;;;;;5041599;28;20208;-64
2022/03/03 03:57:38;;;;;;;2.08;1.98;;;0.80;99.90;;;;;;5035901;28;20687;-64
2022/03/03 04:00:08;;;;;;;2.03;1.92;;;0.80;99.90;;;;;;5041142;28;20224;-65
2022/03/03 04:02:36;;;;;;;2.00;1.90;;;0.80;99.90;;;;;;5046434;28;20220;-66
2022/03/03 04:05:03;;;;;;;1.92;1.83;;;0.80;99.90;;;;;;5048019;28;20208;-66
2022/03/03 04:07:30;;;;;;;2.00;1.90;;;0.80;99.90;;;;;;5047450;28;20247;-65
2022/03/03 04:09:57;;;;;;;2.30;2.20;;;0.80;99.90;;;;;;5035003;28;20244;-65
2022/03/03 04:12:24;;;;;;;2.08;1.98;;;0.70;99.90;;;;;;5033789;28;20597;-65
2022/03/03 04:14:50;;;;;;;2.20;2.10;;;0.70;99.90;;;;;;5033333;28;20300;-66
2022/03/03 04:17:19;;;;;;;2.10;2.00;;;0.70;99.90;;;;;;5033280;28;20295;-65
2022/03/03 04:19:47;;;;;;;2.20;2.10;;;0.70;99.90;;;;;;5037964;28;20231;-65
2022/03/03 04:22:14;;;;;;;2.20;2.10;;;0.80;99.90;;;;;;5035434;28;20320;-63
2022/03/03 04:24:40;;;;;;;2.50;2.40;;;0.70;99.90;;;;;;5033625;28;20239;-65
2022/03/03 04:27:07;;;;;;;2.30;2.20;;;0.80;99.90;;;;;;5044896;28;20232;-65
2022/03/03 04:29:35;;;;;;;2.40;2.30;;;0.80;99.90;;;;;;5049563;28;20201;-66
2022/03/03 04:32:03;;;;;;;2.30;2.20;;;0.80;99.90;;;;;;5038003;28;20282;-63
2022/03/03 04:34:30;;;;;;;2.20;2.10;;;0.70;99.90;;;;;;5033734;28;20216;-65
2022/03/03 04:36:58;;;;;;;2.40;2.30;;;0.70;99.90;;;;;;5033402;28;20243;-65
2022/03/03 04:39:25;;;;;;;2.50;2.40;;;0.70;99.90;;;;;;5030261;28;20902;-65
2022/03/03 04:41:52;;;;;;;2.35;2.25;;;0.60;99.90;;;;;;5027368;28;20308;-66
2022/03/03 04:44:19;;;;;;;2.45;2.33;;;0.60;99.90;;;;;;5037747;28;20204;-64
2022/03/03 04:46:46;;;;;;;2.40;2.30;;;0.50;99.90;;;;;;5046488;28;20204;-66
2022/03/03 04:49:13;;;;;;;2.40;2.30;;;0.50;99.90;;;;;;5044030;28;20967;-64
2022/03/03 04:51:40;;;;;;;2.05;1.95;;;0.50;99.90;;;;;;5034515;28;20316;-63
2022/03/03 04:54:09;;;;;;;2.38;2.20;;;0.50;99.90;;;;;;5035305;28;20212;-65
2022/03/03 04:56:37;;;;;;;2.20;2.10;;;0.50;99.90;;;;;;5039936;28;20663;-63
2022/03/03 04:59:04;;;;;;;2.07;1.97;;;0.50;99.90;;;;;;5043039;28;20231;-63
2022/03/03 05:01:31;;;;;;;2.08;1.98;;;0.60;99.90;;;;;;5034595;28;20225;-64
2022/03/03 05:03:58;;;;;;;2.27;2.17;;;0.60;99.90;;;;;;5034362;28;20295;-63
2022/03/03 05:06:25;;;;;;;2.10;2.00;;;0.60;99.90;;;;;;5034502;28;20303;-63
2022/03/03 05:08:52;;;;;;;2.20;2.10;;;0.60;99.90;;;;;;5034576;28;20291;-65
2022/03/03 05:11:20;;;;;;;2.10;2.00;;;0.70;99.90;;;;;;5034081;28;20224;-63
2022/03/03 05:13:47;;;;;;;2.30;2.20;;;0.70;99.90;;;;;;5033867;28;20208;-64
2022/03/03 05:16:14;;;;;;;2.45;2.35;;;0.70;99.90;;;;;;5033939;28;20204;-64
2022/03/03 05:18:41;;;;;;;2.33;2.22;;;0.70;99.90;;;;;;5033888;28;20224;-64
2022/03/03 05:21:08;;;;;;;2.00;1.90;;;0.60;99.90;;;;;;5034451;28;20295;-64
2022/03/03 05:23:35;;;;;;;2.70;2.60;;;0.60;99.90;;;;;;5036115;28;20211;-65
2022/03/03 05:26:02;;;;;;;2.50;2.40;;;0.60;99.90;;;;;;5034539;28;20284;-63
2022/03/03 05:28:30;;;;;;;2.40;2.30;;;0.60;99.90;;;;;;5033436;28;20200;-64
2022/03/03 05:30:57;;;;;;;2.40;2.30;;;0.70;99.90;;;;;;5034075;28;20201;-66
2022/03/03 05:33:24;;;;;;;2.30;2.20;;;0.70;99.90;;;;;;5044930;28;20274;-65
2022/03/03 05:36:04;;;;;;;2.20;2.10;;;0.70;99.90;;;;;;5041302;28;20679;-65
2022/03/03 05:38:32;;;;;;;2.90;2.70;;;0.70;99.90;;;;;;5032418;28;20287;-63
2022/03/03 05:41:00;;;;;;;2.72;2.58;;;0.60;99.90;;;;;;5032063;28;20675;-65
2022/03/03 05:43:28;;;;;;;2.60;2.40;;;0.60;99.90;;;;;;5032135;28;20204;-64
2022/03/03 05:45:57;;;;;;;2.40;2.30;;;0.50;99.90;;;;;;5032140;28;20701;-64
2022/03/03 05:48:25;;;;;;;2.45;2.35;;;0.50;99.90;;;;;;5029238;28;20213;-64
2022/03/03 05:50:52;;;;;;;2.63;2.53;;;0.50;99.90;;;;;;5018562;28;20208;-64
2022/03/03 05:53:19;;;;;;;2.40;2.30;;;0.50;99.90;;;;;;5027059;28;20308;-65
2022/03/03 05:55:49;;;;;;;2.30;2.20;;;0.50;99.90;;;;;;5032128;28;20227;-64
2022/03/03 05:58:19;;;;;;;2.40;2.30;;;0.40;99.90;;;;;;5030310;28;20207;-63
2022/03/03 06:00:47;;;;;;;2.40;2.30;;;0.50;99.90;;;;;;5013154;28;20228;-64
2022/03/03 06:03:17;;;;;;;2.20;2.10;;;0.50;99.90;;;;;;5029215;28;20229;-64
2022/03/03 06:05:49;;;;;;;2.40;2.30;;;0.60;99.90;;;;;;5017541;28;20193;-65
2022/03/03 06:08:20;;;;;;;2.67;2.58;;;0.50;99.90;;;;;;5023989;28;20292;-65
2022/03/03 06:10:52;;;;;;;3.10;2.90;;;0.60;99.90;;;;;;5012561;28;20273;-63
2022/03/03 06:13:23;;;;;;;2.25;2.15;;;0.50;99.90;;;;;;5015835;28;20312;-64
2022/03/03 06:15:51;;;;;;;2.50;2.40;;;0.60;99.90;;;;;;5012460;28;20205;-64
2022/03/03 06:18:21;;;;;;;2.80;2.60;;;0.60;99.90;;;;;;5013688;28;20211;-65
2022/03/03 06:20:50;;;;;;;2.37;2.27;;;0.60;99.90;;;;;;5017446;28;20224;-62
2022/03/03 06:23:17;;;;;;;2.45;2.35;;;0.60;99.90;;;;;;5024365;28;20242;-67
2022/03/03 06:25:44;;;;;;;2.40;2.30;;;0.70;99.90;;;;;;5029707;28;20225;-66
2022/03/03 06:28:12;;;;;;;2.50;2.40;;;0.80;99.90;;;;;;5031130;28;20243;-65
2022/03/03 06:30:39;;;;;;;2.40;2.30;;;0.80;99.90;;;;;;5030832;28;20205;-66
2022/03/03 06:33:05;;;;;;;2.25;2.15;;;0.80;99.90;;;;;;5031633;28;20236;-67
2022/03/03 06:35:36;;;;;;;2.60;2.42;;;0.80;99.90;;;;;;5027205;28;20207;-67
2022/03/03 06:38:06;;;;;;;2.20;2.10;;;0.80;99.90;;;;;;5022203;28;20211;-65
2022/03/03 06:40:33;;;;;;;2.25;2.15;;;0.90;99.90;;;;;;5022587;28;20277;-66
2022/03/03 06:43:01;;;;;;;2.50;2.40;;;0.90;99.90;;;;;;5025750;28;20228;-66
2022/03/03 06:45:29;;;;;;;2.35;2.25;;;1.00;99.90;;;;;;5028543;28;20271;-64
2022/03/03 06:47:56;;;;;;;2.70;2.60;;;1.00;99.90;;;;;;5030906;28;20210;-67
2022/03/03 06:50:24;;;;;;;2.90;2.70;;;0.90;99.90;;;;;;5032461;28;20287;-67
2022/03/03 06:52:52;;;;;;;3.00;2.80;;;1.00;99.90;;;;;;5045128;28;20315;-67
2022/03/03 06:55:21;;;;;;;3.90;2.70;;;1.10;99.90;;;;;;5033675;28;20213;-67
2022/03/03 06:57:51;;;;;;;2.50;2.40;;;1.00;99.90;;;;;;5034441;28;20212;-66
2022/03/03 07:00:20;;;;;;;2.70;2.50;;;1.00;99.90;;;;;;5018667;28;20224;-67
2022/03/03 07:02:47;;;;;;;2.70;2.50;;;1.00;99.90;;;;;;5021788;28;20231;-66
2022/03/03 07:05:15;;;;;;;3.10;2.90;;;1.00;99.90;;;;;;5033334;28;20212;-66
2022/03/03 07:07:43;;;;;;;3.08;2.88;;;1.00;99.90;;;;;;5026482;28;20305;-67
2022/03/03 07:10:13;;;;;;;3.30;2.80;;;1.00;99.90;;;;;;5030898;28;20201;-68
2022/03/03 07:12:41;;;;;;;2.90;2.70;;;1.10;99.90;;;;;;5034170;28;20232;-67
2022/03/03 07:15:09;;;;;;;2.85;2.60;;;1.10;99.90;;;;;;5032931;28;20195;-66
2022/03/03 07:17:45;;;;;;;2.72;2.63;;;1.20;99.90;;;;;;5033704;28;20201;-68
2022/03/03 07:20:17;;;;;;;3.00;2.80;;;1.30;99.90;;;;;;5032022;28;20235;-68
2022/03/03 07:22:57;;;;;;;2.60;2.50;;;1.40;99.90;;;;;;5031832;28;20216;-66
2022/03/03 07:25:32;;;;;;;2.50;2.40;;;1.40;99.90;;;;;;5033110;28;20196;-67
2022/03/03 07:28:04;;;;;;;3.00;2.80;;;1.50;99.90;;;;;;5029272;28;20258;-66
2022/03/03 07:30:32;;;;;;;2.30;2.20;;;1.80;99.90;;;;;;5034613;28;20197;-66
2022/03/03 07:33:06;;;;;;;2.20;2.10;;;2.00;99.90;;;;;;5033277;28;20236;-67
2022/03/03 07:35:35;;;;;;;2.20;2.10;;;2.10;99.90;;;;;;5037239;28;20263;-67
2022/03/03 07:38:09;;;;;;;3.13;2.92;;;2.30;99.90;;;;;;5045843;28;20647;-67
2022/03/03 07:40:41;;;;;;;3.50;3.30;;;2.20;99.90;;;;;;5031409;28;20220;-67
2022/03/03 07:43:07;;;;;;;3.40;3.20;;;2.10;99.90;;;;;;5029072;28;20231;-67
2022/03/03 07:45:34;;;;;;;3.35;3.10;;;1.90;99.90;;;;;;5033373;28;20204;-67
2022/03/03 07:48:02;;;;;;;2.72;2.63;;;1.90;99.90;;;;;;5031976;28;20247;-67
2022/03/03 07:50:29;;;;;;;3.33;3.13;;;2.00;99.90;;;;;;5034406;28;20220;-66
2022/03/03 07:52:56;;;;;;;3.25;3.05;;;2.10;99.90;;;;;;5034006;28;20303;-67
2022/03/03 07:55:24;;;;;;;2.80;2.70;;;2.20;99.90;;;;;;5031425;28;20213;-66
2022/03/03 07:57:57;;;;;;;3.22;3.03;;;2.20;99.90;;;;;;5032849;28;20291;-67
2022/03/03 08:00:25;;;;;;;3.23;3.03;;;2.30;99.90;;;;;;5031979;28;20220;-66
2022/03/03 08:02:55;;;;;;;3.10;2.90;;;2.40;99.90;;;;;;5032737;28;20262;-66
2022/03/03 08:05:23;;;;;;;3.07;2.87;;;2.50;99.90;;;;;;5038162;28;20204;-66
2022/03/03 08:07:53;;;;;;;3.30;3.10;;;2.70;99.90;;;;;;5032075;28;20293;-68
2022/03/03 08:10:21;;;;;;;3.17;2.97;;;2.90;99.90;;;;;;5031812;28;20192;-66
2022/03/03 08:12:51;;;;;;;3.20;3.00;;;3.10;99.90;;;;;;5032231;28;20304;-67
2022/03/03 08:15:19;;;;;;;3.17;2.97;;;3.40;99.90;;;;;;5033656;28;20236;-68
2022/03/03 08:17:51;;;;;;;3.15;2.95;;;3.50;99.90;;;;;;5031253;28;20283;-67
2022/03/03 08:20:19;;;;;;;2.78;2.58;;;3.60;99.90;;;;;;5033052;28;20225;-67
2022/03/03 08:22:45;;;;;;;3.28;3.08;;;3.80;99.90;;;;;;5037806;28;20280;-67
2022/03/03 08:25:13;;;;;;;3.28;3.08;;;3.90;99.90;;;;;;5053406;28;20209;-66
2022/03/03 08:27:41;;;;;;;3.25;3.05;;;4.00;99.90;;;;;;5050433;28;20207;-66
2022/03/03 08:30:10;;;;;;;3.05;2.92;;;4.20;99.90;;;;;;5041380;28;20276;-66
2022/03/03 08:32:40;;;;;;;2.93;2.80;;;4.40;99.90;;;;;;5046393;22;20233;-64
2022/03/03 08:35:13;;;;;;;3.33;3.13;;;4.60;99.90;;;;;;5042706;28;20287;-63
2022/03/03 08:37:42;;;;;;;3.00;2.80;;;4.80;99.90;;;;;;5039755;28;20208;-63
2022/03/03 08:40:12;;;;;;;2.97;2.87;;;5.10;99.90;;;;;;5041109;28;20303;-63
2022/03/03 08:42:41;;;;;;;2.90;2.70;;;5.10;99.90;;;;;;5043918;28;20260;-63
2022/03/03 08:45:10;;;;;;;3.17;2.97;;;5.20;99.90;;;;;;5048108;28;20197;-63
2022/03/03 08:47:41;;;;;;;2.97;2.87;;;5.50;99.90;;;;;;5053903;28;20204;-64
2022/03/03 08:50:13;;;;;;;2.63;2.47;;;5.60;99.90;;;;;;5053338;28;20291;-62
2022/03/03 08:52:42;;;;;;;2.97;2.78;;;5.70;99.90;;;;;;5052696;28;20227;-62
2022/03/03 08:55:12;;;;;;;3.20;3.00;;;5.90;99.90;;;;;;5055483;28;20235;-63
2022/03/03 08:57:39;;;;;;;3.03;2.83;;;5.80;99.90;;;;;;5046752;28;20208;-63
2022/03/03 09:00:09;;;;;;;2.70;2.60;;;5.90;99.90;;;;;;5050366;28;20660;-62
2022/03/03 09:02:37;;;;;;;3.17;2.97;;;6.20;99.90;;;;;;5047445;28;20259;-62
2022/03/03 09:05:07;;;;;;;3.10;2.90;;;6.20;99.90;;;;;;5045841;28;20250;-64
2022/03/03 09:07:34;;;;;;;3.47;3.27;;;6.30;99.90;;;;;;5046220;28;20287;-64
2022/03/03 09:10:01;;;;;;;3.57;3.37;;;6.20;99.90;;;;;;5045686;28;20203;-62
2022/03/03 09:12:28;;;;;;;3.58;3.28;;;6.20;99.90;;;;;;5044125;28;20358;-62
2022/03/03 09:14:55;;;;;;;3.63;3.37;;;6.20;99.90;;;;;;5044024;28;20653;-62
2022/03/03 09:17:22;;;;;;;3.53;3.33;;;6.20;99.90;;;;;;5048852;28;20200;-62
2022/03/03 09:19:49;;;;;;;3.50;3.30;;;6.10;99.90;;;;;;5023223;28;20688;-62
2022/03/03 09:22:17;;;;;;;3.65;3.45;;;6.20;99.90;;;;;;5031996;28;20650;-63
2022/03/03 09:24:44;;;;;;;3.50;3.30;;;6.30;99.90;;;;;;5033940;28;20303;-63
2022/03/03 09:27:11;;;;;;;3.17;2.97;;;6.40;99.90;;;;;;5039049;28;20220;-64
2022/03/03 09:29:38;;;;;;;3.30;3.13;;;6.50;99.90;;;;;;5040872;28;20235;-64
2022/03/03 09:32:07;;;;;;;3.50;3.30;;;6.60;99.90;;;;;;5040692;28;20267;-65
2022/03/03 09:34:34;;;;;;;3.33;3.13;;;6.60;99.90;;;;;;5044576;28;20212;-64
2022/03/03 09:37:01;;;;;;;3.30;3.10;;;6.70;99.90;;;;;;5050749;28;20208;-64
2022/03/03 09:39:29;;;;;;;3.20;3.00;;;6.70;99.90;;;;;;5052609;28;20303;-64
2022/03/03 09:41:57;;;;;;;3.53;3.33;;;6.70;99.90;;;;;;5053309;28;20323;-61
2022/03/03 09:44:25;;;;;;;3.72;3.53;;;6.90;99.90;;;;;;5057013;28;20224;-64
2022/03/03 09:46:52;;;;;;;3.90;3.67;;;6.90;99.90;;;;;;5060728;28;20200;-65
2022/03/03 09:49:20;;;;;;;3.33;3.13;;;7.00;99.90;;;;;;5058836;28;20204;-63
2022/03/03 09:51:47;;;;;;;2.97;2.88;;;6.90;99.90;;;;;;5058313;28;20323;-63
2022/03/03 09:54:15;;;;;;;3.30;3.10;;;7.00;99.90;;;;;;5056599;28;20231;-63
2022/03/03 09:56:45;;;;;;;3.50;3.30;;;7.00;99.90;;;;;;5052033;28;20283;-63
2022/03/03 09:59:12;;;;;;;3.30;3.10;;;7.10;99.90;;;;;;5050568;28;20200;-62
2022/03/03 10:01:39;;;;;;;3.80;3.60;;;7.20;99.90;;;;;;5047210;28;20267;-63
2022/03/03 10:04:18;;;;;;;4.13;3.93;;;7.30;99.90;;;;;;5042897;28;20227;-63
2022/03/03 10:06:45;;;;;;;4.50;4.30;;;7.40;99.90;;;;;;5012030;28;20245;-63
2022/03/03 10:09:12;;;;;;;4.28;4.07;;;7.30;99.90;;;;;;5048570;28;20208;-62
2022/03/03 10:11:59;;;;;;;3.97;3.77;;;7.40;99.90;;;;;;5049432;28;20279;-62
2022/03/03 10:14:27;;;;;;;3.63;3.42;;;7.50;99.90;;;;;;5055061;28;20219;-62
2022/03/03 10:16:54;;;;;;;3.30;3.10;;;7.30;99.90;;;;;;5054685;28;21032;-63
2022/03/03 10:19:21;;;;;;;3.93;3.73;;;7.30;99.90;;;;;;5052752;28;20260;-62
2022/03/03 10:21:48;;;;;;;3.87;3.67;;;7.40;99.90;;;;;;5053609;28;20333;-65
2022/03/03 10:24:17;;;;;;;3.60;3.40;;;7.20;99.90;;;;;;5051943;28;20263;-65
2022/03/03 10:26:47;;;;;;;4.13;3.73;;;7.40;99.90;;;;;;5035892;28;20216;-64
2022/03/03 10:29:18;;;;;;;3.57;3.37;;;7.50;99.90;;;;;;5023604;28;20205;-65
2022/03/03 10:31:48;;;;;;;3.90;3.70;;;7.60;99.90;;;;;;5016379;28;20205;-63
2022/03/03 10:34:20;;;;;;;3.70;3.50;;;7.70;99.90;;;;;;5034717;28;20315;-65
2022/03/03 10:36:57;;;;;;;3.20;3.00;;;7.80;99.90;;;;;;5040001;28;20521;-64
2022/03/03 10:39:24;;;;;;;4.10;3.80;;;7.90;99.90;;;;;;5055604;28;20242;-63
2022/03/03 10:41:55;;;;;;;4.00;3.60;;;8.10;99.90;;;;;;5049460;28;20703;-63
2022/03/03 10:44:24;;;;;;;3.83;3.50;;;8.10;99.90;;;;;;5046921;28;20208;-63
2022/03/03 10:47:03;;;;;;;3.80;3.60;;;8.20;99.90;;;;;;5052850;28;20224;-63
2022/03/03 10:49:30;;;;;;;3.53;3.33;;;8.20;99.90;;;;;;5047536;28;20371;-63
2022/03/03 10:52:10;;;;;;;3.80;3.60;;;8.30;99.90;;;;;;5048468;28;20262;-63
2022/03/03 10:54:53;;;;;;;3.20;3.00;;;8.40;99.90;;;;;;5040583;28;20200;-64
2022/03/03 10:57:40;;;;;;;3.70;3.50;;;8.50;99.90;;;;;;5047048;28;20635;-65
2022/03/03 11:00:13;;;;;;;3.50;3.30;;;8.60;99.90;;;;;;5039374;28;20287;-65
2022/03/03 11:02:43;;;;;;;3.40;3.20;;;8.70;99.90;;;;;;5032371;28;20302;-64
2022/03/03 11:05:12;;;;;;;3.43;3.23;;;8.80;99.90;;;;;;5047150;28;20200;-65
2022/03/03 11:07:42;;;;;;;3.70;3.50;;;8.90;99.90;;;;;;5044170;28;20283;-64
2022/03/03 11:10:11;;;;;;;3.50;3.30;;;9.00;99.90;;;;;;5044884;28;20206;-65
2022/03/03 11:12:40;;;;;;;3.80;3.60;;;9.10;99.90;;;;;;5049425;28;20258;-63
2022/03/03 11:15:08;;;;;;;3.57;3.27;;;9.20;99.90;;;;;;5048400;28;20242;-64
2022/03/03 11:17:36;;;;;;;3.60;3.40;;;9.30;99.90;;;;;;5045978;28;20244;-63
2022/03/03 11:20:04;;;;;;;3.40;3.20;;;9.40;99.90;;;;;;5047043;28;20246;-64
2022/03/03 11:22:32;;;;;;;3.40;3.10;;;9.30;99.90;;;;;;5051153;28;20302;-65
2022/03/03 11:25:01;;;;;;;4.07;3.77;;;9.30;99.90;;;;;;5049948;28;20287;-64
2022/03/03 11:27:36;;;;;;;3.70;3.50;;;9.30;99.90;;;;;;5048322;28;20200;-63
2022/03/03 11:30:15;;;;;;;4.00;3.80;;;9.40;99.90;;;;;;5048932;28;20200;-63
2022/03/03 11:32:42;;;;;;;3.58;3.38;;;9.50;99.90;;;;;;5049674;28;20301;-65
2022/03/03 11:35:11;;;;;;;3.60;3.40;;;9.60;99.90;;;;;;5048584;28;20286;-63
2022/03/03 11:37:43;;;;;;;4.18;3.88;;;9.70;99.90;;;;;;5046431;28;20235;-65
2022/03/03 11:40:12;;;;;;;3.43;3.23;;;9.80;99.90;;;;;;5044653;28;20287;-64
2022/03/03 11:42:41;;;;;;;3.72;3.53;;;9.90;99.90;;;;;;5048969;28;20303;-65
2022/03/03 11:45:32;;;;;;;3.47;3.27;;;9.90;99.90;;;;;;5048751;28;20745;-65
2022/03/03 11:48:11;;;;;;;3.43;3.23;;;9.90;99.90;;;;;;5048672;28;20212;-64
2022/03/03 11:50:39;;;;;;;3.67;3.47;;;10.00;99.90;;;;;;5046262;28;20200;-65
2022/03/03 11:53:20;;;;;;;3.83;3.63;;;10.00;99.90;;;;;;5020862;28;20716;-64
2022/03/03 11:55:50;;;;;;;3.60;3.40;;;10.10;99.90;;;;;;5020385;28;20201;-64
2022/03/03 11:58:19;;;;;;;4.00;3.80;;;10.10;99.90;;;;;;5028729;28;20602;-63
2022/03/03 12:01:05;;;;;;;4.17;3.90;;;10.20;99.90;;;;;;5020939;28;20221;-65
2022/03/03 12:03:33;;;;;;;3.60;3.40;;;10.10;99.90;;;;;;5014596;28;20225;-64
2022/03/03 12:06:05;;;;;;;3.70;3.50;;;10.20;99.90;;;;;;5033677;28;20688;-64
2022/03/03 12:08:34;;;;;;;3.77;3.57;;;10.50;99.90;;;;;;5040872;28;20196;-64
2022/03/03 12:11:07;;;;;;;3.88;3.67;;;10.60;99.90;;;;;;5042416;28;20231;-64
2022/03/03 12:13:43;;;;;;;3.90;3.70;;;10.70;99.90;;;;;;5032863;28;20773;-63
2022/03/03 12:16:30;;;;;;;4.03;3.80;;;10.70;99.90;;;;;;5046491;28;20282;-65
2022/03/03 12:19:14;;;;;;;4.07;3.87;;;10.70;99.90;;;;;;5042334;28;20272;-63
2022/03/03 12:21:43;;;;;;;4.40;4.20;;;10.80;99.90;;;;;;5046844;28;20738;-64
2022/03/03 12:24:32;;;;;;;4.35;4.13;;;11.00;99.90;;;;;;5047598;28;20224;-63
2022/03/03 12:27:14;;;;;;;4.50;4.30;;;10.90;99.90;;;;;;5029226;28;20289;-65
2022/03/03 12:29:57;;;;;;;4.78;4.47;;;11.00;99.90;;;;;;5031122;28;20216;-63
2022/03/03 12:32:40;;;;;;;4.57;4.27;;;11.00;99.90;;;;;;5039989;28;20220;-63
2022/03/03 12:35:21;;;;;;;4.70;4.40;;;11.10;99.90;;;;;;5043527;28;20641;-64
2022/03/03 12:37:49;;;;;;;4.73;4.43;;;11.00;99.90;;;;;;5046050;28;20599;-64
2022/03/03 12:40:17;;;;;;;5.10;4.80;;;10.90;99.90;;;;;;5047693;28;20278;-64
2022/03/03 12:42:45;;;;;;;4.80;4.50;;;11.00;99.90;;;;;;5046122;28;20264;-63
2022/03/03 12:45:15;;;;;;;4.03;3.83;;;11.00;99.90;;;;;;5046801;28;20282;-64
2022/03/03 12:47:46;;;;;;;4.90;4.60;;;10.90;99.90;;;;;;5037098;28;20296;-63
2022/03/03 12:50:15;;;;;;;4.63;4.30;;;10.90;99.90;;;;;;5028069;28;20251;-64
2022/03/03 12:52:43;;;;;;;4.35;4.05;;;10.90;99.90;;;;;;5032133;28;20216;-64
2022/03/03 12:55:11;;;;;;;4.22;4.03;;;10.90;99.90;;;;;;5031917;28;20236;-63
2022/03/03 12:57:40;;;;;;;4.33;4.10;;;11.00;99.90;;;;;;5032228;28;20215;-65
2022/03/03 13:00:10;;;;;;;4.45;4.10;;;11.00;99.90;;;;;;5031905;28;20217;-63
2022/03/03 13:02:51;;;;;;;4.80;4.40;;;11.20;99.90;;;;;;5031536;28;20256;-64
2022/03/03 13:05:47;;;;;;;4.77;4.47;;;11.40;99.90;;;;;;5031950;28;20247;-64
2022/03/03 13:08:25;;;;;;;4.50;4.30;;;11.50;99.90;;;;;;5031172;28;20198;-64